Aérodrome :
LOGIN :

S'inscrire | Disclaimer

   EN    FR    IT 

 










Légende :    VFR   VFR Marginal   IFR   IFR Intensif   IFR Très Intensif
Visi : 
Plafond : 
>= 8 km
>= 3000ft
5 à 8 km
1000 à 3000 ft
1500m à 5 km
500 à 1000 ft
800 à 1500m
200 à 500 ft
< 800m
< 200 ft
Symboles :   Orages  Brouillard  Fortes neiges  Fortes précipitations  Vent > 20 kt
SIGMETs :   Divers  Orages  Givrage  Turbulence  Onde Orograph.  Cendres Volcan.







- Altitude de l'aérodrome : 2945 ft
- Code IATA : RGS


LEBG - Burgos

DERNIER METAR :
  • 291700Z 17009KT 130V210 9999 FEW035TCU SCT040 14/06 Q1007

METARs EXPIRÉS :
  • 291630Z 15007KT 120V180 9999 FEW030CB 14/08 Q1007
  • 291600Z 17010KT 140V200 9999 FEW030CB 12/08 Q1008
  • 291530Z 16013G23KT 130V200 9999 4000SE -SHRA SCT028TCU BKN045 12/06 Q1009
  • 291500Z 15013KT 120V190 9999 FEW035TCU SCT040 BKN065 14/06 Q1008
  • 291430Z 17010KT 140V210 9999 SCT040 BKN060 15/06 Q1009

TAF TAF LEBG
Valide du 29 à 15h jusqu'au 30 à 00h UTC


291400Z 2915/2924 16010KT 9999 BKN040
PROB30
TEMPO 2915/2918 SHRA SCT020CB SCT030
Pas de NOTAMs connus pour ce terrain.
4 SIGMETs publiés pour la FIR Madrid (LECM) :
 
Annulation du SIGMET 3 
LECM SIGMET 6 VALID 291645/291730 LEVA
LECM MADRID FIR/UIR CNL SIGMET 3 VALID 291546/291730=
Orages noyés dans la masse
LECM SIGMET 5 VALID 291644/291830 LEVA
LECM MADRID FIR/UIR EMBD TS OBS AT 1644Z WI N3930 W00540 - N3830 W00540 - N39 W00230 - N3950 W00240 TOP FL250 MOV NE 10KT NC=
SIGMET 3  ANNULÉ :
Orages noyés dans la masse
LECM SIGMET 3 VALID 291546/291730 LEVA
LECM MADRID FIR/UIR EMBD TS OBS AT 1546Z WI N4130 W005 - N4230 W00350 - N4210 W00310 - N4050 W00410 TOP FL250 MOV NE 10KT NC=
Orages noyés dans la masse
LECM SIGMET 2 VALID 291542/291730 LEVA
LECM MADRID FIR/UIR EMBD TS OBS AT 1542Z WI N3810 W004 - N3730 W004 - N3740 W00220 - N39 W00210 TOP FL250 MOV NE 10KT NC=



MET'MAP, la Météo Aéronautique d'un coup d'oeil ! - Copyright ORBIFLY Décembre 2007 - Disclaimer

ORBIFLY MET'MAP TEAM :

Programmation & Développement : Alexandra Zaïnal
Conception & Développement : Baudouin d'Aumeries
Co-Programmation & Développement : Marc-Olivier Méhu
Soutien technique & logistique : Manuel Goepfert

Contact : metmap@orbifly.com




SOURCES & CREDITS :

   NOAA